sensor_id;sensor_type;location;lat;lon;timestamp;pressure;altitude;pressure_sealevel;temperature;humidity
79150;BME280;68563;45.644;13.782;2023-12-04T00:01:27;101858.91;;;3.73;39.70
79150;BME280;68563;45.644;13.782;2023-12-04T00:03:53;101849.47;;;3.72;40.33
79150;BME280;68563;45.644;13.782;2023-12-04T00:06:18;101865.56;;;3.67;40.20
79150;BME280;68563;45.644;13.782;2023-12-04T00:08:44;101840.97;;;3.73;39.54
79150;BME280;68563;45.644;13.782;2023-12-04T00:11:09;101852.16;;;3.75;39.64
79150;BME280;68563;45.644;13.782;2023-12-04T00:13:35;101864.97;;;3.75;40.01
79150;BME280;68563;45.644;13.782;2023-12-04T00:16:00;101857.16;;;3.72;40.38
79150;BME280;68563;45.644;13.782;2023-12-04T00:18:26;101852.00;;;3.70;40.10
79150;BME280;68563;45.644;13.782;2023-12-04T00:20:51;101848.53;;;3.70;40.64
79150;BME280;68563;45.644;13.782;2023-12-04T00:23:17;101851.38;;;3.77;40.53
79150;BME280;68563;45.644;13.782;2023-12-04T00:25:43;101849.59;;;3.75;40.27
79150;BME280;68563;45.644;13.782;2023-12-04T00:28:08;101861.03;;;3.85;39.77
79150;BME280;68563;45.644;13.782;2023-12-04T00:30:34;101849.84;;;3.82;40.35
79150;BME280;68563;45.644;13.782;2023-12-04T00:32:59;101855.81;;;3.83;40.86
79150;BME280;68563;45.644;13.782;2023-12-04T00:35:25;101855.94;;;3.86;39.89
79150;BME280;68563;45.644;13.782;2023-12-04T00:37:50;101858.63;;;3.89;40.04
79150;BME280;68563;45.644;13.782;2023-12-04T00:40:15;101850.84;;;3.88;39.00
79150;BME280;68563;45.644;13.782;2023-12-04T00:42:41;101857.84;;;3.92;40.40
79150;BME280;68563;45.644;13.782;2023-12-04T00:45:07;101859.47;;;3.90;39.17
79150;BME280;68563;45.644;13.782;2023-12-04T00:47:32;101857.56;;;3.84;39.40
79150;BME280;68563;45.644;13.782;2023-12-04T00:49:58;101844.59;;;3.79;39.45
79150;BME280;68563;45.644;13.782;2023-12-04T00:52:23;101846.31;;;3.79;39.85
79150;BME280;68563;45.644;13.782;2023-12-04T00:54:49;101855.63;;;3.77;40.05
79150;BME280;68563;45.644;13.782;2023-12-04T00:57:14;101846.13;;;3.74;39.83
79150;BME280;68563;45.644;13.782;2023-12-04T00:59:39;101843.28;;;3.65;39.41
79150;BME280;68563;45.644;13.782;2023-12-04T01:02:06;101846.09;;;3.73;39.05
79150;BME280;68563;45.644;13.782;2023-12-04T01:04:32;101858.88;;;3.71;39.48
79150;BME280;68563;45.644;13.782;2023-12-04T01:06:57;101853.56;;;3.66;40.08
79150;BME280;68563;45.644;13.782;2023-12-04T01:09:23;101853.56;;;3.66;39.72
79150;BME280;68563;45.644;13.782;2023-12-04T01:11:53;101855.16;;;3.63;40.23
79150;BME280;68563;45.644;13.782;2023-12-04T01:14:20;101851.94;;;3.69;39.91
79150;BME280;68563;45.644;13.782;2023-12-04T01:16:45;101841.38;;;3.59;39.97
79150;BME280;68563;45.644;13.782;2023-12-04T01:19:11;101843.88;;;3.58;39.88
79150;BME280;68563;45.644;13.782;2023-12-04T01:21:36;101854.44;;;3.67;40.55
79150;BME280;68563;45.644;13.782;2023-12-04T01:24:01;101848.63;;;3.71;40.13
79150;BME280;68563;45.644;13.782;2023-12-04T01:26:27;101835.59;;;3.65;40.07
79150;BME280;68563;45.644;13.782;2023-12-04T01:28:52;101843.19;;;3.63;40.43
79150;BME280;68563;45.644;13.782;2023-12-04T01:31:18;101847.50;;;3.64;40.84
79150;BME280;68563;45.644;13.782;2023-12-04T01:33:43;101843.31;;;3.66;40.63
79150;BME280;68563;45.644;13.782;2023-12-04T01:36:08;101839.81;;;3.64;40.03
79150;BME280;68563;45.644;13.782;2023-12-04T01:38:34;101844.94;;;3.64;40.27
79150;BME280;68563;45.644;13.782;2023-12-04T01:40:59;101825.84;;;3.55;40.91
79150;BME280;68563;45.644;13.782;2023-12-04T01:43:25;101833.72;;;3.61;40.51
79150;BME280;68563;45.644;13.782;2023-12-04T01:45:51;101812.38;;;3.60;40.14
79150;BME280;68563;45.644;13.782;2023-12-04T01:48:17;101819.34;;;3.64;40.03
79150;BME280;68563;45.644;13.782;2023-12-04T01:50:43;101817.59;;;3.63;40.68
79150;BME280;68563;45.644;13.782;2023-12-04T01:53:09;101823.53;;;3.62;39.98
79150;BME280;68563;45.644;13.782;2023-12-04T01:55:36;101816.53;;;3.57;40.47
79150;BME280;68563;45.644;13.782;2023-12-04T01:58:03;101814.78;;;3.56;39.78
79150;BME280;68563;45.644;13.782;2023-12-04T02:00:30;101814.81;;;3.57;39.93
79150;BME280;68563;45.644;13.782;2023-12-04T02:02:58;101808.88;;;3.58;40.87
79150;BME280;68563;45.644;13.782;2023-12-04T02:05:24;101805.31;;;3.53;40.78
79150;BME280;68563;45.644;13.782;2023-12-04T02:07:51;101803.56;;;3.52;41.02
79150;BME280;68563;45.644;13.782;2023-12-04T02:10:17;101802.66;;;3.51;40.65
79150;BME280;68563;45.644;13.782;2023-12-04T02:12:43;101791.59;;;3.53;40.56
79150;BME280;68563;45.644;13.782;2023-12-04T02:15:08;101792.69;;;3.59;39.66
79150;BME280;68563;45.644;13.782;2023-12-04T02:17:34;101785.59;;;3.50;39.42
79150;BME280;68563;45.644;13.782;2023-12-04T02:20:01;101804.84;;;3.65;39.83
79150;BME280;68563;45.644;13.782;2023-12-04T02:22:26;101814.22;;;3.64;40.87
79150;BME280;68563;45.644;13.782;2023-12-04T02:24:51;101812.47;;;3.63;41.56
79150;BME280;68563;45.644;13.782;2023-12-04T02:27:30;101808.88;;;3.58;40.44
79150;BME280;68563;45.644;13.782;2023-12-04T02:30:01;101810.44;;;3.53;40.66
79150;BME280;68563;45.644;13.782;2023-12-04T02:32:31;101807.13;;;3.57;41.02
79150;BME280;68563;45.644;13.782;2023-12-04T02:34:59;101810.47;;;3.55;41.32
79150;BME280;68563;45.644;13.782;2023-12-04T02:37:27;101794.38;;;3.59;41.43
79150;BME280;68563;45.644;13.782;2023-12-04T02:39:53;101809.81;;;3.60;41.56
79150;BME280;68563;45.644;13.782;2023-12-04T02:42:21;101806.44;;;3.61;39.87
79150;BME280;68563;45.644;13.782;2023-12-04T02:44:46;101798.53;;;3.55;40.03
79150;BME280;68563;45.644;13.782;2023-12-04T02:47:12;101805.38;;;3.56;40.01
79150;BME280;68563;45.644;13.782;2023-12-04T02:49:37;101802.91;;;3.58;39.67
79150;BME280;68563;45.644;13.782;2023-12-04T02:52:03;101797.66;;;3.55;39.83
79150;BME280;68563;45.644;13.782;2023-12-04T02:54:28;101799.38;;;3.54;40.45
79150;BME280;68563;45.644;13.782;2023-12-04T02:56:54;101800.19;;;3.53;40.46
79150;BME280;68563;45.644;13.782;2023-12-04T02:59:19;101807.78;;;3.51;40.21
79150;BME280;68563;45.644;13.782;2023-12-04T03:01:45;101813.84;;;3.54;40.60
79150;BME280;68563;45.644;13.782;2023-12-04T03:04:10;101817.28;;;3.54;40.40
79150;BME280;68563;45.644;13.782;2023-12-04T03:06:36;101814.63;;;3.51;40.79
79150;BME280;68563;45.644;13.782;2023-12-04T03:09:02;101807.25;;;3.60;39.72
79150;BME280;68563;45.644;13.782;2023-12-04T03:11:29;101799.44;;;3.57;39.52
79150;BME280;68563;45.644;13.782;2023-12-04T03:13:54;101794.16;;;3.53;40.10
79150;BME280;68563;45.644;13.782;2023-12-04T03:16:19;101790.75;;;3.52;39.59
79150;BME280;68563;45.644;13.782;2023-12-04T03:18:45;101793.34;;;3.54;39.96
79150;BME280;68563;45.644;13.782;2023-12-04T03:21:11;101777.91;;;3.50;39.70
79150;BME280;68563;45.644;13.782;2023-12-04T03:23:36;101789.25;;;3.59;39.59
79150;BME280;68563;45.644;13.782;2023-12-04T03:26:02;101780.66;;;3.57;40.06
79150;BME280;68563;45.644;13.782;2023-12-04T03:28:28;101780.59;;;3.55;39.27
79150;BME280;68563;45.644;13.782;2023-12-04T03:30:53;101783.94;;;3.53;39.14
79150;BME280;68563;45.644;13.782;2023-12-04T03:33:18;101783.09;;;3.54;39.26
79150;BME280;68563;45.644;13.782;2023-12-04T03:35:44;101783.22;;;3.57;39.52
79150;BME280;68563;45.644;13.782;2023-12-04T03:38:09;101782.19;;;3.51;40.09
79150;BME280;68563;45.644;13.782;2023-12-04T03:40:35;101776.41;;;3.57;40.67
79150;BME280;68563;45.644;13.782;2023-12-04T03:43:00;101770.22;;;3.50;39.86
79150;BME280;68563;45.644;13.782;2023-12-04T03:45:25;101775.34;;;3.50;39.67
79150;BME280;68563;45.644;13.782;2023-12-04T03:47:51;101769.13;;;3.44;39.64
79150;BME280;68563;45.644;13.782;2023-12-04T03:50:16;101771.47;;;3.38;39.77
79150;BME280;68563;45.644;13.782;2023-12-04T03:52:42;101763.91;;;3.41;39.40
79150;BME280;68563;45.644;13.782;2023-12-04T03:55:08;101773.91;;;3.34;39.85
79150;BME280;68563;45.644;13.782;2023-12-04T03:57:33;101778.34;;;3.39;39.91
79150;BME280;68563;45.644;13.782;2023-12-04T03:59:59;101770.53;;;3.35;39.86
79150;BME280;68563;45.644;13.782;2023-12-04T04:02:24;101769.78;;;3.38;39.88
79150;BME280;68563;45.644;13.782;2023-12-04T04:04:50;101762.97;;;3.39;40.12
79150;BME280;68563;45.644;13.782;2023-12-04T04:07:16;101774.91;;;3.38;39.94
79150;BME280;68563;45.644;13.782;2023-12-04T04:09:42;101780.19;;;3.43;40.38
79150;BME280;68563;45.644;13.782;2023-12-04T04:12:07;101780.09;;;3.40;40.25
79150;BME280;68563;45.644;13.782;2023-12-04T04:14:33;101789.53;;;3.41;39.36
79150;BME280;68563;45.644;13.782;2023-12-04T04:16:58;101786.13;;;3.42;39.24
79150;BME280;68563;45.644;13.782;2023-12-04T04:19:24;101783.34;;;3.35;39.61
79150;BME280;68563;45.644;13.782;2023-12-04T04:21:49;101792.69;;;3.33;39.90
79150;BME280;68563;45.644;13.782;2023-12-04T04:24:14;101797.91;;;3.37;39.87
79150;BME280;68563;45.644;13.782;2023-12-04T04:26:40;101792.56;;;3.30;39.83
79150;BME280;68563;45.644;13.782;2023-12-04T04:29:05;101805.63;;;3.38;40.02
79150;BME280;68563;45.644;13.782;2023-12-04T04:31:30;101806.59;;;3.42;40.87
79150;BME280;68563;45.644;13.782;2023-12-04T04:33:56;101806.59;;;3.42;41.23
79150;BME280;68563;45.644;13.782;2023-12-04T04:36:21;101806.56;;;3.40;41.38
79150;BME280;68563;45.644;13.782;2023-12-04T04:38:46;101802.56;;;3.48;40.63
79150;BME280;68563;45.644;13.782;2023-12-04T04:41:15;101785.25;;;3.41;40.65
79150;BME280;68563;45.644;13.782;2023-12-04T04:43:41;101792.09;;;3.41;40.94
79150;BME280;68563;45.644;13.782;2023-12-04T04:46:07;101786.84;;;3.38;40.97
79150;BME280;68563;45.644;13.782;2023-12-04T04:48:32;101791.78;;;3.33;41.24
79150;BME280;68563;45.644;13.782;2023-12-04T04:50:58;101796.06;;;3.32;40.81
79150;BME280;68563;45.644;13.782;2023-12-04T04:53:23;101796.16;;;3.35;40.33
79150;BME280;68563;45.644;13.782;2023-12-04T04:55:48;101792.44;;;3.27;39.90
79150;BME280;68563;45.644;13.782;2023-12-04T04:58:14;101798.63;;;3.32;40.55
79150;BME280;68563;45.644;13.782;2023-12-04T05:00:39;101797.81;;;3.33;40.82
79150;BME280;68563;45.644;13.782;2023-12-04T05:03:05;101807.09;;;3.31;41.47
79150;BME280;68563;45.644;13.782;2023-12-04T05:05:30;101816.63;;;3.35;41.50
79150;BME280;68563;45.644;13.782;2023-12-04T05:07:55;101811.47;;;3.34;42.26
79150;BME280;68563;45.644;13.782;2023-12-04T05:10:21;101812.31;;;3.34;42.68
79150;BME280;68563;45.644;13.782;2023-12-04T05:12:46;101813.16;;;3.33;42.37
79150;BME280;68563;45.644;13.782;2023-12-04T05:15:12;101823.44;;;3.35;42.55
79150;BME280;68563;45.644;13.782;2023-12-04T05:17:37;101811.28;;;3.29;42.12
79150;BME280;68563;45.644;13.782;2023-12-04T05:20:03;101801.06;;;3.29;41.72
79150;BME280;68563;45.644;13.782;2023-12-04T05:22:28;101794.09;;;3.25;41.37
79150;BME280;68563;45.644;13.782;2023-12-04T05:24:53;101799.91;;;3.21;41.55
79150;BME280;68563;45.644;13.782;2023-12-04T05:27:19;101795.06;;;3.29;41.70
79150;BME280;68563;45.644;13.782;2023-12-04T05:29:44;101786.28;;;3.22;40.95
79150;BME280;68563;45.644;13.782;2023-12-04T05:32:10;101793.88;;;3.19;40.66
79150;BME280;68563;45.644;13.782;2023-12-04T05:34:35;101792.13;;;3.18;41.38
79150;BME280;68563;45.644;13.782;2023-12-04T05:37:00;101787.91;;;3.20;42.29
79150;BME280;68563;45.644;13.782;2023-12-04T05:39:26;101781.00;;;3.17;42.31
79150;BME280;68563;45.644;13.782;2023-12-04T05:41:51;101769.91;;;3.17;41.30
79150;BME280;68563;45.644;13.782;2023-12-04T05:44:16;101762.28;;;3.18;41.76
79150;BME280;68563;45.644;13.782;2023-12-04T05:46:42;101752.81;;;3.16;41.25
79150;BME280;68563;45.644;13.782;2023-12-04T05:49:07;101751.22;;;3.19;40.73
79150;BME280;68563;45.644;13.782;2023-12-04T05:51:33;101734.69;;;3.10;41.01
79150;BME280;68563;45.644;13.782;2023-12-04T05:53:58;101750.41;;;3.21;40.73
79150;BME280;68563;45.644;13.782;2023-12-04T05:56:24;101746.88;;;3.17;41.03
79150;BME280;68563;45.644;13.782;2023-12-04T05:58:49;101736.47;;;3.12;40.81
79150;BME280;68563;45.644;13.782;2023-12-04T06:01:15;101744.97;;;3.11;41.37
79150;BME280;68563;45.644;13.782;2023-12-04T06:03:40;101739.75;;;3.08;41.08
79150;BME280;68563;45.644;13.782;2023-12-04T06:06:06;101749.66;;;3.23;40.58
79150;BME280;68563;45.644;13.782;2023-12-04T06:08:31;101745.25;;;3.19;40.79
79150;BME280;68563;45.644;13.782;2023-12-04T06:10:57;101737.66;;;3.22;40.23
79150;BME280;68563;45.644;13.782;2023-12-04T06:13:23;101728.84;;;3.14;40.23
79150;BME280;68563;45.644;13.782;2023-12-04T06:15:48;101720.91;;;3.06;40.58
79150;BME280;68563;45.644;13.782;2023-12-04T06:18:14;101735.66;;;3.13;40.44
79150;BME280;68563;45.644;13.782;2023-12-04T06:20:39;101736.69;;;3.18;40.85
79150;BME280;68563;45.644;13.782;2023-12-04T06:23:05;101742.13;;;3.28;41.75
79150;BME280;68563;45.644;13.782;2023-12-04T06:25:31;101737.69;;;3.24;40.15
79150;BME280;68563;45.644;13.782;2023-12-04T06:27:56;101744.13;;;3.37;41.79
79150;BME280;68563;45.644;13.782;2023-12-04T06:30:22;101736.66;;;3.43;41.39
79150;BME280;68563;45.644;13.782;2023-12-04T06:32:48;101735.63;;;3.38;41.07
79150;BME280;68563;45.644;13.782;2023-12-04T06:35:14;101739.56;;;3.28;40.13
79150;BME280;68563;45.644;13.782;2023-12-04T06:37:40;101747.25;;;3.28;39.73
79150;BME280;68563;45.644;13.782;2023-12-04T06:40:06;101740.16;;;3.21;39.71
79150;BME280;68563;45.644;13.782;2023-12-04T06:42:35;101740.34;;;3.25;39.95
79150;BME280;68563;45.644;13.782;2023-12-04T06:45:00;101734.16;;;3.20;39.99
79150;BME280;68563;45.644;13.782;2023-12-04T06:47:28;101719.47;;;3.14;39.97
79150;BME280;68563;45.644;13.782;2023-12-04T06:49:56;101721.22;;;3.15;39.83
79150;BME280;68563;45.644;13.782;2023-12-04T06:52:21;101717.13;;;3.21;39.96
79150;BME280;68563;45.644;13.782;2023-12-04T06:54:46;101720.47;;;3.18;39.66
79150;BME280;68563;45.644;13.782;2023-12-04T06:57:12;101725.59;;;3.18;39.50
79150;BME280;68563;45.644;13.782;2023-12-04T06:59:42;101729.94;;;3.21;39.28
79150;BME280;68563;45.644;13.782;2023-12-04T07:02:07;101725.94;;;3.29;39.04
79150;BME280;68563;45.644;13.782;2023-12-04T07:04:33;101725.94;;;3.29;39.82
79150;BME280;68563;45.644;13.782;2023-12-04T07:06:58;101723.59;;;3.35;40.04
79150;BME280;68563;45.644;13.782;2023-12-04T07:09:33;101721.84;;;3.34;39.89
79150;BME280;68563;45.644;13.782;2023-12-04T07:12:02;101714.22;;;3.35;39.78
79150;BME280;68563;45.644;13.782;2023-12-04T07:14:28;101714.94;;;3.57;39.46
79150;BME280;68563;45.644;13.782;2023-12-04T07:16:53;101707.66;;;4.26;38.28
79150;BME280;68563;45.644;13.782;2023-12-04T07:19:19;101688.19;;;5.27;36.32
79150;BME280;68563;45.644;13.782;2023-12-04T07:21:45;101680.13;;;6.21;34.95
79150;BME280;68563;45.644;13.782;2023-12-04T07:24:10;101682.19;;;6.82;33.81
79150;BME280;68563;45.644;13.782;2023-12-04T07:26:36;101682.50;;;6.98;33.10
79150;BME280;68563;45.644;13.782;2023-12-04T07:29:02;101681.69;;;7.00;33.22
79150;BME280;68563;45.644;13.782;2023-12-04T07:31:28;101677.72;;;6.72;33.10
79150;BME280;68563;45.644;13.782;2023-12-04T07:33:54;101681.41;;;6.42;34.38
79150;BME280;68563;45.644;13.782;2023-12-04T07:36:19;101679.22;;;6.19;34.60
79150;BME280;68563;45.644;13.782;2023-12-04T07:38:45;101666.66;;;5.95;34.53
79150;BME280;68563;45.644;13.782;2023-12-04T07:41:10;101668.00;;;5.78;35.17
79150;BME280;68563;45.644;13.782;2023-12-04T07:43:36;101668.28;;;5.53;35.35
79150;BME280;68563;45.644;13.782;2023-12-04T07:46:01;101668.97;;;5.46;35.19
79150;BME280;68563;45.644;13.782;2023-12-04T07:48:28;101661.97;;;5.40;35.58
79150;BME280;68563;45.644;13.782;2023-12-04T07:50:55;101661.09;;;5.38;35.93
79150;BME280;68563;45.644;13.782;2023-12-04T07:53:20;101648.84;;;5.28;36.05
79150;BME280;68563;45.644;13.782;2023-12-04T07:55:45;101646.97;;;5.22;36.67
79150;BME280;68563;45.644;13.782;2023-12-04T07:58:13;101652.88;;;5.18;37.05
79150;BME280;68563;45.644;13.782;2023-12-04T08:00:38;101648.44;;;5.13;37.42
79150;BME280;68563;45.644;13.782;2023-12-04T08:03:04;101643.91;;;5.01;37.56
79150;BME280;68563;45.644;13.782;2023-12-04T08:05:29;101652.75;;;5.14;36.97
79150;BME280;68563;45.644;13.782;2023-12-04T08:07:57;101655.97;;;5.77;43.77
79150;BME280;68563;45.644;13.782;2023-12-04T08:10:22;101655.47;;;5.55;36.53
79150;BME280;68563;45.644;13.782;2023-12-04T08:12:48;101658.03;;;5.55;36.71
79150;BME280;68563;45.644;13.782;2023-12-04T08:15:13;101663.91;;;5.49;36.52
79150;BME280;68563;45.644;13.782;2023-12-04T08:17:39;101662.19;;;5.48;36.88
79150;BME280;68563;45.644;13.782;2023-12-04T08:20:05;101665.28;;;5.35;36.46
79150;BME280;68563;45.644;13.782;2023-12-04T08:22:40;101667.75;;;5.32;35.85
79150;BME280;68563;45.644;13.782;2023-12-04T08:25:06;101682.09;;;5.23;35.93
79150;BME280;68563;45.644;13.782;2023-12-04T08:27:32;101683.00;;;5.24;36.91
79150;BME280;68563;45.644;13.782;2023-12-04T08:29:58;101688.81;;;5.18;38.14
79150;BME280;68563;45.644;13.782;2023-12-04T08:32:23;101687.03;;;5.14;38.66
79150;BME280;68563;45.644;13.782;2023-12-04T08:34:51;101688.75;;;5.15;38.67
79150;BME280;68563;45.644;13.782;2023-12-04T08:37:17;101684.34;;;5.09;38.53
79150;BME280;68563;45.644;13.782;2023-12-04T08:39:43;101679.22;;;5.11;38.55
79150;BME280;68563;45.644;13.782;2023-12-04T08:42:09;101680.84;;;5.07;37.77
79150;BME280;68563;45.644;13.782;2023-12-04T08:44:34;101687.25;;;5.58;41.89
79150;BME280;68563;45.644;13.782;2023-12-04T08:47:00;101690.47;;;5.50;38.20
79150;BME280;68563;45.644;13.782;2023-12-04T08:49:26;101698.09;;;5.47;38.49
79150;BME280;68563;45.644;13.782;2023-12-04T08:51:52;101705.75;;;5.43;38.83
79150;BME280;68563;45.644;13.782;2023-12-04T08:54:18;101706.44;;;5.38;37.81
79150;BME280;68563;45.644;13.782;2023-12-04T08:56:44;101712.34;;;5.34;37.72
79150;BME280;68563;45.644;13.782;2023-12-04T08:59:09;101714.81;;;5.31;37.77
79150;BME280;68563;45.644;13.782;2023-12-04T09:01:35;101723.28;;;5.26;38.06
79150;BME280;68563;45.644;13.782;2023-12-04T09:04:01;101729.25;;;5.25;38.18
79150;BME280;68563;45.644;13.782;2023-12-04T09:06:26;101724.88;;;5.21;38.89
79150;BME280;68563;45.644;13.782;2023-12-04T09:08:52;101734.97;;;5.49;49.43
79150;BME280;68563;45.644;13.782;2023-12-04T09:11:19;101724.13;;;5.61;39.67
79150;BME280;68563;45.644;13.782;2023-12-04T09:13:44;101734.44;;;5.62;38.63
79150;BME280;68563;45.644;13.782;2023-12-04T09:16:10;101730.88;;;5.55;37.86
79150;BME280;68563;45.644;13.782;2023-12-04T09:18:35;101731.59;;;5.51;38.50
79150;BME280;68563;45.644;13.782;2023-12-04T09:21:00;101729.81;;;5.47;38.63
79150;BME280;68563;45.644;13.782;2023-12-04T09:23:26;101728.84;;;5.43;39.35
79150;BME280;68563;45.644;13.782;2023-12-04T09:25:51;101724.50;;;5.41;39.67
79150;BME280;68563;45.644;13.782;2023-12-04T09:28:16;101722.09;;;6.60;54.97
79150;BME280;68563;45.644;13.782;2023-12-04T09:30:42;101710.22;;;7.62;52.08
79150;BME280;68563;45.644;13.782;2023-12-04T09:33:08;101703.66;;;8.45;49.33
79150;BME280;68563;45.644;13.782;2023-12-04T09:35:33;101698.25;;;8.98;47.32
79150;BME280;68563;45.644;13.782;2023-12-04T09:37:59;101695.41;;;8.73;39.29
79150;BME280;68563;45.644;13.782;2023-12-04T09:40:28;101682.34;;;7.96;39.07
79150;BME280;68563;45.644;13.782;2023-12-04T09:42:54;101688.56;;;7.50;40.29
79150;BME280;68563;45.644;13.782;2023-12-04T09:45:19;101688.63;;;7.05;41.98
79150;BME280;68563;45.644;13.782;2023-12-04T09:47:47;101710.50;;;6.81;42.42
79150;BME280;68563;45.644;13.782;2023-12-04T09:50:15;101692.75;;;6.52;43.19
79150;BME280;68563;45.644;13.782;2023-12-04T09:52:44;101691.59;;;6.36;42.14
79150;BME280;68563;45.644;13.782;2023-12-04T09:55:09;101698.38;;;6.32;42.80
79150;BME280;68563;45.644;13.782;2023-12-04T09:57:35;101673.09;;;6.13;42.49
79150;BME280;68563;45.644;13.782;2023-12-04T10:00:02;101670.41;;;6.08;42.74
79150;BME280;68563;45.644;13.782;2023-12-04T10:02:30;101687.63;;;6.12;42.73
79150;BME280;68563;45.644;13.782;2023-12-04T10:04:56;101670.44;;;6.10;42.79
79150;BME280;68563;45.644;13.782;2023-12-04T10:07:22;101659.91;;;5.99;42.46
79150;BME280;68563;45.644;13.782;2023-12-04T10:09:48;101674.41;;;6.35;44.28
79150;BME280;68563;45.644;13.782;2023-12-04T10:12:19;101660.81;;;6.41;42.12
79150;BME280;68563;45.644;13.782;2023-12-04T10:15:05;101639.78;;;6.19;38.18
79150;BME280;68563;45.644;13.782;2023-12-04T10:17:36;101651.13;;;6.29;38.63
79150;BME280;68563;45.644;13.782;2023-12-04T10:22:38;101639.72;;;6.16;35.48
79150;BME280;68563;45.644;13.782;2023-12-04T10:25:16;101634.41;;;6.08;35.42
79150;BME280;68563;45.644;13.782;2023-12-04T10:27:43;101630.00;;;6.02;35.11
79150;BME280;68563;45.644;13.782;2023-12-04T10:30:09;101630.81;;;6.00;35.71
79150;BME280;68563;45.644;13.782;2023-12-04T10:32:41;101629.13;;;6.00;36.90
79150;BME280;68563;45.644;13.782;2023-12-04T10:35:07;101606.69;;;5.95;35.68
79150;BME280;68563;45.644;13.782;2023-12-04T10:37:37;101596.41;;;5.96;35.26
79150;BME280;68563;45.644;13.782;2023-12-04T10:40:03;101587.66;;;5.86;36.37
79150;BME280;68563;45.644;13.782;2023-12-04T10:42:33;101610.09;;;5.95;36.33
79150;BME280;68563;45.644;13.782;2023-12-04T10:45:00;101572.88;;;5.76;37.15
79150;BME280;68563;45.644;13.782;2023-12-04T10:47:28;101579.94;;;5.88;37.15
79150;BME280;68563;45.644;13.782;2023-12-04T10:49:54;101595.59;;;5.97;35.71
79150;BME280;68563;45.644;13.782;2023-12-04T10:52:22;101590.00;;;6.15;45.85
79150;BME280;68563;45.644;13.782;2023-12-04T10:54:48;101580.13;;;6.37;37.88
79150;BME280;68563;45.644;13.782;2023-12-04T10:57:21;101570.66;;;6.36;36.52
79150;BME280;68563;45.644;13.782;2023-12-04T10:59:48;101566.34;;;6.35;35.59
79150;BME280;68563;45.644;13.782;2023-12-04T11:02:20;101557.50;;;6.20;36.41
79150;BME280;68563;45.644;13.782;2023-12-04T11:04:49;101534.19;;;6.11;36.23
79150;BME280;68563;45.644;13.782;2023-12-04T11:07:17;101562.03;;;6.32;36.55
79150;BME280;68563;45.644;13.782;2023-12-04T11:09:44;101554.06;;;6.18;36.35
79150;BME280;68563;45.644;13.782;2023-12-04T11:12:13;101542.88;;;6.16;36.45
79150;BME280;68563;45.644;13.782;2023-12-04T11:14:46;101534.25;;;6.14;36.06
79150;BME280;68563;45.644;13.782;2023-12-04T11:17:16;101522.19;;;6.10;35.83
79150;BME280;68563;45.644;13.782;2023-12-04T11:20:03;101528.34;;;6.18;35.96
79150;BME280;68563;45.644;13.782;2023-12-04T11:22:34;101501.44;;;6.02;35.86
79150;BME280;68563;45.644;13.782;2023-12-04T11:25:01;101492.72;;;5.96;35.97
79150;BME280;68563;45.644;13.782;2023-12-04T11:27:30;101521.38;;;6.14;36.36
79150;BME280;68563;45.644;13.782;2023-12-04T11:29:57;101498.97;;;6.07;36.69
79150;BME280;68563;45.644;13.782;2023-12-04T11:32:24;101499.19;;;6.19;35.83
79150;BME280;68563;45.644;13.782;2023-12-04T11:34:56;101473.16;;;6.02;35.56
79150;BME280;68563;45.644;13.782;2023-12-04T11:37:24;101499.31;;;6.26;35.60
79150;BME280;68563;45.644;13.782;2023-12-04T11:39:50;101506.25;;;6.30;35.38
79150;BME280;68563;45.644;13.782;2023-12-04T11:42:23;101506.16;;;6.27;35.88
79150;BME280;68563;45.644;13.782;2023-12-04T11:44:49;101492.97;;;6.06;35.91
79150;BME280;68563;45.644;13.782;2023-12-04T11:47:15;101495.84;;;6.23;34.69
79150;BME280;68563;45.644;13.782;2023-12-04T11:49:40;101491.44;;;6.18;35.44
79150;BME280;68563;45.644;13.782;2023-12-04T11:52:06;101485.47;;;6.20;34.99
79150;BME280;68563;45.644;13.782;2023-12-04T11:55:03;101494.91;;;6.20;34.92
79150;BME280;68563;45.644;13.782;2023-12-04T11:57:35;101487.22;;;6.21;34.96
79150;BME280;68563;45.644;13.782;2023-12-04T12:05:26;101481.25;;;6.24;34.23
79150;BME280;68563;45.644;13.782;2023-12-04T12:07:51;101453.63;;;6.12;35.04
79150;BME280;68563;45.644;13.782;2023-12-04T12:10:17;101429.50;;;6.04;36.02
79150;BME280;68563;45.644;13.782;2023-12-04T12:12:43;101433.81;;;6.05;36.38
79150;BME280;68563;45.644;13.782;2023-12-04T12:15:12;101440.81;;;6.15;36.12
79150;BME280;68563;45.644;13.782;2023-12-04T12:17:38;101458.09;;;6.22;35.90
79150;BME280;68563;45.644;13.782;2023-12-04T12:20:06;101439.16;;;6.17;36.81
79150;BME280;68563;45.644;13.782;2023-12-04T12:22:33;101447.88;;;6.26;35.68
79150;BME280;68563;45.644;13.782;2023-12-04T12:24:59;101431.53;;;6.23;35.64
79150;BME280;68563;45.644;13.782;2023-12-04T12:27:25;101448.91;;;6.37;35.09
79150;BME280;68563;45.644;13.782;2023-12-04T12:29:50;101446.19;;;6.28;35.76
79150;BME280;68563;45.644;13.782;2023-12-04T12:32:16;101451.28;;;6.25;35.80
79150;BME280;68563;45.644;13.782;2023-12-04T12:34:41;101452.06;;;6.20;36.67
79150;BME280;68563;45.644;13.782;2023-12-04T12:37:08;101445.22;;;6.21;36.36
79150;BME280;68563;45.644;13.782;2023-12-04T12:39:34;101437.44;;;6.18;36.62
79150;BME280;68563;45.644;13.782;2023-12-04T12:42:00;101428.88;;;6.17;36.81
79150;BME280;68563;45.644;13.782;2023-12-04T12:44:26;101421.91;;;6.13;35.85
79150;BME280;68563;45.644;13.782;2023-12-04T12:46:52;101423.75;;;6.19;36.44
79150;BME280;68563;45.644;13.782;2023-12-04T12:49:18;101421.16;;;6.17;36.32
79150;BME280;68563;45.644;13.782;2023-12-04T12:51:46;101427.97;;;6.17;35.45
79150;BME280;68563;45.644;13.782;2023-12-04T12:54:13;101431.44;;;6.17;36.66